sensor_id;sensor_type;location;lat;lon;timestamp;temperature;humidity
51867;DHT22;52862;52.504;13.480;2023-04-25T00:00:51;9.50;99.90
51867;DHT22;52862;52.504;13.480;2023-04-25T00:03:18;9.40;99.90
51867;DHT22;52862;52.504;13.480;2023-04-25T00:05:45;9.30;99.90
51867;DHT22;52862;52.504;13.480;2023-04-25T00:08:13;9.40;99.90
51867;DHT22;52862;52.504;13.480;2023-04-25T00:10:39;9.40;99.90
51867;DHT22;52862;52.504;13.480;2023-04-25T00:13:06;9.40;99.90
51867;DHT22;52862;52.504;13.480;2023-04-25T00:15:34;9.40;99.90
51867;DHT22;52862;52.504;13.480;2023-04-25T00:18:02;9.40;99.90
51867;DHT22;52862;52.504;13.480;2023-04-25T00:20:29;9.40;99.90
51867;DHT22;52862;52.504;13.480;2023-04-25T00:22:55;9.40;99.90
51867;DHT22;52862;52.504;13.480;2023-04-25T00:25:23;9.30;99.90
51867;DHT22;52862;52.504;13.480;2023-04-25T00:27:50;9.30;99.90
51867;DHT22;52862;52.504;13.480;2023-04-25T00:30:16;9.40;99.90
51867;DHT22;52862;52.504;13.480;2023-04-25T00:32:43;9.30;99.90
51867;DHT22;52862;52.504;13.480;2023-04-25T00:35:10;9.40;99.90
51867;DHT22;52862;52.504;13.480;2023-04-25T00:37:36;9.40;99.90
51867;DHT22;52862;52.504;13.480;2023-04-25T00:40:05;9.30;99.90
51867;DHT22;52862;52.504;13.480;2023-04-25T00:42:34;9.30;99.90
51867;DHT22;52862;52.504;13.480;2023-04-25T00:45:01;9.40;99.90
51867;DHT22;52862;52.504;13.480;2023-04-25T00:47:30;9.50;99.90
51867;DHT22;52862;52.504;13.480;2023-04-25T00:49:57;9.30;99.90
51867;DHT22;52862;52.504;13.480;2023-04-25T00:52:23;9.30;99.90
51867;DHT22;52862;52.504;13.480;2023-04-25T00:54:50;9.30;99.90
51867;DHT22;52862;52.504;13.480;2023-04-25T00:57:18;9.30;99.90
51867;DHT22;52862;52.504;13.480;2023-04-25T00:59:46;9.30;99.90
51867;DHT22;52862;52.504;13.480;2023-04-25T01:02:13;9.30;99.90
51867;DHT22;52862;52.504;13.480;2023-04-25T01:04:40;9.30;99.90
51867;DHT22;52862;52.504;13.480;2023-04-25T01:07:06;9.30;99.90
51867;DHT22;52862;52.504;13.480;2023-04-25T01:09:34;9.30;99.90
51867;DHT22;52862;52.504;13.480;2023-04-25T01:12:02;9.30;99.90
51867;DHT22;52862;52.504;13.480;2023-04-25T01:14:29;9.30;99.90
51867;DHT22;52862;52.504;13.480;2023-04-25T01:16:59;9.20;99.90
51867;DHT22;52862;52.504;13.480;2023-04-25T01:19:27;9.30;99.90
51867;DHT22;52862;52.504;13.480;2023-04-25T01:21:54;9.20;99.90
51867;DHT22;52862;52.504;13.480;2023-04-25T01:24:21;9.20;99.90
51867;DHT22;52862;52.504;13.480;2023-04-25T01:26:48;9.20;99.90
51867;DHT22;52862;52.504;13.480;2023-04-25T01:29:17;9.20;99.90
51867;DHT22;52862;52.504;13.480;2023-04-25T01:31:44;9.30;99.90
51867;DHT22;52862;52.504;13.480;2023-04-25T01:34:11;9.30;99.90
51867;DHT22;52862;52.504;13.480;2023-04-25T01:36:41;9.40;99.90
51867;DHT22;52862;52.504;13.480;2023-04-25T01:39:11;9.30;99.90
51867;DHT22;52862;52.504;13.480;2023-04-25T01:41:37;9.20;99.90
51867;DHT22;52862;52.504;13.480;2023-04-25T01:44:04;9.30;99.90
51867;DHT22;52862;52.504;13.480;2023-04-25T01:46:32;9.20;99.90
51867;DHT22;52862;52.504;13.480;2023-04-25T01:48:59;9.30;99.90
51867;DHT22;52862;52.504;13.480;2023-04-25T01:51:26;9.30;99.90
51867;DHT22;52862;52.504;13.480;2023-04-25T01:53:54;9.30;99.90
51867;DHT22;52862;52.504;13.480;2023-04-25T01:56:21;9.30;99.90
51867;DHT22;52862;52.504;13.480;2023-04-25T01:58:51;9.30;99.90
51867;DHT22;52862;52.504;13.480;2023-04-25T02:01:18;9.30;99.90
51867;DHT22;52862;52.504;13.480;2023-04-25T02:03:45;9.30;99.90
51867;DHT22;52862;52.504;13.480;2023-04-25T02:06:12;9.30;99.90
51867;DHT22;52862;52.504;13.480;2023-04-25T02:08:38;9.30;99.90
51867;DHT22;52862;52.504;13.480;2023-04-25T02:11:05;9.30;99.90
51867;DHT22;52862;52.504;13.480;2023-04-25T02:13:32;9.30;99.90
51867;DHT22;52862;52.504;13.480;2023-04-25T02:16:02;9.30;99.90
51867;DHT22;52862;52.504;13.480;2023-04-25T02:18:29;9.30;99.90
51867;DHT22;52862;52.504;13.480;2023-04-25T02:20:58;9.30;99.90
51867;DHT22;52862;52.504;13.480;2023-04-25T02:23:24;9.30;99.90
51867;DHT22;52862;52.504;13.480;2023-04-25T02:25:52;9.30;99.90
51867;DHT22;52862;52.504;13.480;2023-04-25T02:28:24;9.30;99.90
51867;DHT22;52862;52.504;13.480;2023-04-25T02:30:52;9.30;99.90
51867;DHT22;52862;52.504;13.480;2023-04-25T02:33:18;9.30;99.90
51867;DHT22;52862;52.504;13.480;2023-04-25T02:35:47;9.20;99.90
51867;DHT22;52862;52.504;13.480;2023-04-25T02:38:13;9.20;99.90
51867;DHT22;52862;52.504;13.480;2023-04-25T02:40:40;9.20;99.90
51867;DHT22;52862;52.504;13.480;2023-04-25T02:43:07;9.20;99.90
51867;DHT22;52862;52.504;13.480;2023-04-25T02:45:34;9.20;99.90
51867;DHT22;52862;52.504;13.480;2023-04-25T02:48:02;9.20;99.90
51867;DHT22;52862;52.504;13.480;2023-04-25T02:50:29;9.20;99.90
51867;DHT22;52862;52.504;13.480;2023-04-25T02:52:55;9.20;99.90
51867;DHT22;52862;52.504;13.480;2023-04-25T02:55:22;9.20;99.90
51867;DHT22;52862;52.504;13.480;2023-04-25T02:57:50;9.20;99.90
51867;DHT22;52862;52.504;13.480;2023-04-25T03:00:17;9.10;99.90
51867;DHT22;52862;52.504;13.480;2023-04-25T03:02:44;9.10;99.90
51867;DHT22;52862;52.504;13.480;2023-04-25T03:05:11;9.20;99.90
51867;DHT22;52862;52.504;13.480;2023-04-25T03:07:38;9.20;99.90
51867;DHT22;52862;52.504;13.480;2023-04-25T03:10:06;9.10;99.90
51867;DHT22;52862;52.504;13.480;2023-04-25T03:12:36;9.10;99.90
51867;DHT22;52862;52.504;13.480;2023-04-25T03:15:03;9.10;99.90
51867;DHT22;52862;52.504;13.480;2023-04-25T03:17:30;9.10;99.90
51867;DHT22;52862;52.504;13.480;2023-04-25T03:19:57;9.10;99.90
51867;DHT22;52862;52.504;13.480;2023-04-25T03:22:24;9.10;99.90
51867;DHT22;52862;52.504;13.480;2023-04-25T03:24:51;9.10;99.90
51867;DHT22;52862;52.504;13.480;2023-04-25T03:27:18;9.10;99.90
51867;DHT22;52862;52.504;13.480;2023-04-25T03:29:45;9.10;99.90
51867;DHT22;52862;52.504;13.480;2023-04-25T03:32:12;9.00;99.90
51867;DHT22;52862;52.504;13.480;2023-04-25T03:34:38;9.00;99.90
51867;DHT22;52862;52.504;13.480;2023-04-25T03:37:06;9.00;99.90
51867;DHT22;52862;52.504;13.480;2023-04-25T03:39:58;9.00;99.90
51867;DHT22;52862;52.504;13.480;2023-04-25T03:42:25;9.10;99.90
51867;DHT22;52862;52.504;13.480;2023-04-25T03:44:51;9.00;99.90
51867;DHT22;52862;52.504;13.480;2023-04-25T03:47:21;9.00;99.90
51867;DHT22;52862;52.504;13.480;2023-04-25T03:49:47;9.10;99.90
51867;DHT22;52862;52.504;13.480;2023-04-25T03:52:15;9.10;99.90
51867;DHT22;52862;52.504;13.480;2023-04-25T03:54:42;9.00;99.90
51867;DHT22;52862;52.504;13.480;2023-04-25T03:57:09;9.00;99.90
51867;DHT22;52862;52.504;13.480;2023-04-25T03:59:36;9.10;99.90
51867;DHT22;52862;52.504;13.480;2023-04-25T04:02:03;9.00;99.90
51867;DHT22;52862;52.504;13.480;2023-04-25T04:04:29;9.00;99.90
51867;DHT22;52862;52.504;13.480;2023-04-25T04:06:59;8.90;99.90
51867;DHT22;52862;52.504;13.480;2023-04-25T04:09:28;8.90;99.90
51867;DHT22;52862;52.504;13.480;2023-04-25T04:11:54;9.00;99.90
51867;DHT22;52862;52.504;13.480;2023-04-25T04:14:22;9.00;99.90
51867;DHT22;52862;52.504;13.480;2023-04-25T04:16:48;9.00;99.90
51867;DHT22;52862;52.504;13.480;2023-04-25T04:19:19;9.00;99.90
51867;DHT22;52862;52.504;13.480;2023-04-25T04:21:46;9.00;99.90
51867;DHT22;52862;52.504;13.480;2023-04-25T04:24:13;9.00;99.90
51867;DHT22;52862;52.504;13.480;2023-04-25T04:26:41;9.00;99.90
51867;DHT22;52862;52.504;13.480;2023-04-25T04:29:10;9.10;99.90
51867;DHT22;52862;52.504;13.480;2023-04-25T04:31:38;9.00;99.90
51867;DHT22;52862;52.504;13.480;2023-04-25T04:34:04;9.10;99.90
51867;DHT22;52862;52.504;13.480;2023-04-25T04:36:32;9.00;99.90
51867;DHT22;52862;52.504;13.480;2023-04-25T04:38:58;9.00;99.90
51867;DHT22;52862;52.504;13.480;2023-04-25T04:41:25;9.00;99.90
51867;DHT22;52862;52.504;13.480;2023-04-25T04:43:55;9.10;99.90
51867;DHT22;52862;52.504;13.480;2023-04-25T04:46:22;8.70;99.90
51867;DHT22;52862;52.504;13.480;2023-04-25T04:48:51;9.20;99.90
51867;DHT22;52862;52.504;13.480;2023-04-25T04:51:19;9.10;99.90
51867;DHT22;52862;52.504;13.480;2023-04-25T04:53:46;9.10;99.90
51867;DHT22;52862;52.504;13.480;2023-04-25T04:56:13;9.10;99.90
51867;DHT22;52862;52.504;13.480;2023-04-25T04:58:39;9.10;99.90
51867;DHT22;52862;52.504;13.480;2023-04-25T05:01:06;9.10;99.90
51867;DHT22;52862;52.504;13.480;2023-04-25T05:03:33;9.20;99.90
51867;DHT22;52862;52.504;13.480;2023-04-25T05:06:01;9.30;99.90
51867;DHT22;52862;52.504;13.480;2023-04-25T05:08:28;9.30;99.90
51867;DHT22;52862;52.504;13.480;2023-04-25T05:10:54;9.20;99.90
51867;DHT22;52862;52.504;13.480;2023-04-25T05:13:21;9.20;99.90
51867;DHT22;52862;52.504;13.480;2023-04-25T05:15:48;9.20;99.90
51867;DHT22;52862;52.504;13.480;2023-04-25T05:18:14;9.10;99.90
51867;DHT22;52862;52.504;13.480;2023-04-25T05:20:41;9.20;99.90
51867;DHT22;52862;52.504;13.480;2023-04-25T05:23:08;9.20;99.90
51867;DHT22;52862;52.504;13.480;2023-04-25T05:25:35;9.20;99.90
51867;DHT22;52862;52.504;13.480;2023-04-25T05:28:02;9.20;99.90
51867;DHT22;52862;52.504;13.480;2023-04-25T05:30:28;9.20;99.90
51867;DHT22;52862;52.504;13.480;2023-04-25T05:32:55;9.30;99.90
51867;DHT22;52862;52.504;13.480;2023-04-25T05:35:22;9.20;99.90
51867;DHT22;52862;52.504;13.480;2023-04-25T05:37:48;9.20;99.90
51867;DHT22;52862;52.504;13.480;2023-04-25T05:40:16;9.20;99.90
51867;DHT22;52862;52.504;13.480;2023-04-25T05:42:42;9.30;99.90
51867;DHT22;52862;52.504;13.480;2023-04-25T05:45:09;9.40;99.90
51867;DHT22;52862;52.504;13.480;2023-04-25T05:47:36;9.40;99.90
51867;DHT22;52862;52.504;13.480;2023-04-25T05:50:03;9.30;99.90
51867;DHT22;52862;52.504;13.480;2023-04-25T05:52:30;9.20;99.90
51867;DHT22;52862;52.504;13.480;2023-04-25T05:54:56;9.20;99.90
51867;DHT22;52862;52.504;13.480;2023-04-25T05:57:25;9.20;99.90
51867;DHT22;52862;52.504;13.480;2023-04-25T05:59:52;9.20;99.90
51867;DHT22;52862;52.504;13.480;2023-04-25T06:02:20;9.20;99.90
51867;DHT22;52862;52.504;13.480;2023-04-25T06:04:47;9.20;99.90
51867;DHT22;52862;52.504;13.480;2023-04-25T06:07:14;9.20;99.90
51867;DHT22;52862;52.504;13.480;2023-04-25T06:09:44;9.20;99.90
51867;DHT22;52862;52.504;13.480;2023-04-25T06:12:11;9.30;99.90
51867;DHT22;52862;52.504;13.480;2023-04-25T06:14:38;9.20;99.90
51867;DHT22;52862;52.504;13.480;2023-04-25T06:17:33;9.20;99.90
51867;DHT22;52862;52.504;13.480;2023-04-25T06:20:00;9.20;99.90
51867;DHT22;52862;52.504;13.480;2023-04-25T06:22:26;9.20;99.90
51867;DHT22;52862;52.504;13.480;2023-04-25T06:24:53;9.20;99.90
51867;DHT22;52862;52.504;13.480;2023-04-25T06:27:19;9.20;99.90
51867;DHT22;52862;52.504;13.480;2023-04-25T06:29:47;9.30;99.90
51867;DHT22;52862;52.504;13.480;2023-04-25T06:32:13;9.30;99.90
51867;DHT22;52862;52.504;13.480;2023-04-25T06:34:40;9.50;99.90
51867;DHT22;52862;52.504;13.480;2023-04-25T06:37:06;9.50;99.90
51867;DHT22;52862;52.504;13.480;2023-04-25T06:39:33;9.50;99.90
51867;DHT22;52862;52.504;13.480;2023-04-25T06:42:00;9.50;99.90
51867;DHT22;52862;52.504;13.480;2023-04-25T06:44:26;9.40;99.90
51867;DHT22;52862;52.504;13.480;2023-04-25T06:46:56;9.40;99.90
51867;DHT22;52862;52.504;13.480;2023-04-25T06:49:22;9.40;99.90
51867;DHT22;52862;52.504;13.480;2023-04-25T06:51:49;9.40;99.90
51867;DHT22;52862;52.504;13.480;2023-04-25T06:54:15;11.10;99.90
51867;DHT22;52862;52.504;13.480;2023-04-25T06:56:43;9.50;99.90
51867;DHT22;52862;52.504;13.480;2023-04-25T06:59:10;9.50;99.90
51867;DHT22;52862;52.504;13.480;2023-04-25T07:01:36;9.50;99.90
51867;DHT22;52862;52.504;13.480;2023-04-25T07:04:04;9.50;99.90
51867;DHT22;52862;52.504;13.480;2023-04-25T07:06:31;9.50;99.90
51867;DHT22;52862;52.504;13.480;2023-04-25T07:08:58;9.40;99.90
51867;DHT22;52862;52.504;13.480;2023-04-25T07:11:24;9.30;99.90
51867;DHT22;52862;52.504;13.480;2023-04-25T07:13:51;9.30;99.90
51867;DHT22;52862;52.504;13.480;2023-04-25T07:16:18;9.30;99.90
51867;DHT22;52862;52.504;13.480;2023-04-25T07:18:44;9.30;99.90
51867;DHT22;52862;52.504;13.480;2023-04-25T07:21:12;9.30;99.90
51867;DHT22;52862;52.504;13.480;2023-04-25T07:23:39;9.30;99.90
51867;DHT22;52862;52.504;13.480;2023-04-25T07:26:07;9.30;99.90
51867;DHT22;52862;52.504;13.480;2023-04-25T07:28:34;9.20;99.90
51867;DHT22;52862;52.504;13.480;2023-04-25T07:31:00;9.10;99.90
51867;DHT22;52862;52.504;13.480;2023-04-25T07:33:27;9.10;99.90
51867;DHT22;52862;52.504;13.480;2023-04-25T07:35:55;9.10;99.90
51867;DHT22;52862;52.504;13.480;2023-04-25T07:38:22;9.10;99.90
51867;DHT22;52862;52.504;13.480;2023-04-25T07:40:49;9.20;99.90
51867;DHT22;52862;52.504;13.480;2023-04-25T07:43:16;9.40;99.90
51867;DHT22;52862;52.504;13.480;2023-04-25T07:45:43;9.20;99.90
51867;DHT22;52862;52.504;13.480;2023-04-25T07:48:10;9.30;99.90
51867;DHT22;52862;52.504;13.480;2023-04-25T07:50:37;9.20;99.90
51867;DHT22;52862;52.504;13.480;2023-04-25T07:53:03;9.30;99.90
51867;DHT22;52862;52.504;13.480;2023-04-25T07:55:31;9.40;99.90
51867;DHT22;52862;52.504;13.480;2023-04-25T07:57:58;9.40;99.90
51867;DHT22;52862;52.504;13.480;2023-04-25T08:00:24;9.50;99.90
51867;DHT22;52862;52.504;13.480;2023-04-25T08:02:54;9.60;99.90
51867;DHT22;52862;52.504;13.480;2023-04-25T08:05:21;9.80;99.90
51867;DHT22;52862;52.504;13.480;2023-04-25T08:07:49;9.40;99.90
51867;DHT22;52862;52.504;13.480;2023-04-25T08:10:16;9.30;99.90
51867;DHT22;52862;52.504;13.480;2023-04-25T08:12:44;9.30;99.90
51867;DHT22;52862;52.504;13.480;2023-04-25T08:15:11;9.30;99.90
51867;DHT22;52862;52.504;13.480;2023-04-25T08:17:39;9.50;99.90
51867;DHT22;52862;52.504;13.480;2023-04-25T08:20:07;10.20;99.90
51867;DHT22;52862;52.504;13.480;2023-04-25T08:22:35;10.10;99.90
51867;DHT22;52862;52.504;13.480;2023-04-25T08:25:03;10.10;99.90
51867;DHT22;52862;52.504;13.480;2023-04-25T08:27:30;10.20;99.90
51867;DHT22;52862;52.504;13.480;2023-04-25T08:29:57;10.00;99.90
51867;DHT22;52862;52.504;13.480;2023-04-25T08:32:24;9.60;99.90
51867;DHT22;52862;52.504;13.480;2023-04-25T08:34:52;9.80;99.90
51867;DHT22;52862;52.504;13.480;2023-04-25T08:37:20;9.70;99.90
51867;DHT22;52862;52.504;13.480;2023-04-25T08:39:47;10.10;99.90
51867;DHT22;52862;52.504;13.480;2023-04-25T08:42:15;10.40;99.90
51867;DHT22;52862;52.504;13.480;2023-04-25T08:44:41;10.40;99.90
51867;DHT22;52862;52.504;13.480;2023-04-25T08:47:09;10.20;99.90
51867;DHT22;52862;52.504;13.480;2023-04-25T08:49:37;10.10;99.90
51867;DHT22;52862;52.504;13.480;2023-04-25T08:52:05;10.10;99.90
51867;DHT22;52862;52.504;13.480;2023-04-25T08:54:32;10.20;99.90
51867;DHT22;52862;52.504;13.480;2023-04-25T08:57:02;9.90;99.90
51867;DHT22;52862;52.504;13.480;2023-04-25T08:59:30;9.90;99.90
51867;DHT22;52862;52.504;13.480;2023-04-25T09:01:57;10.00;99.90
51867;DHT22;52862;52.504;13.480;2023-04-25T09:04:25;10.40;99.90
51867;DHT22;52862;52.504;13.480;2023-04-25T09:06:52;10.40;99.90
51867;DHT22;52862;52.504;13.480;2023-04-25T09:09:18;10.50;99.90
51867;DHT22;52862;52.504;13.480;2023-04-25T09:11:45;10.30;99.90
51867;DHT22;52862;52.504;13.480;2023-04-25T09:14:13;10.30;99.90
51867;DHT22;52862;52.504;13.480;2023-04-25T09:17:02;10.10;99.90
51867;DHT22;52862;52.504;13.480;2023-04-25T09:19:31;12.30;99.90
51867;DHT22;52862;52.504;13.480;2023-04-25T09:22:10;10.80;99.90
51867;DHT22;52862;52.504;13.480;2023-04-25T09:24:39;10.90;99.90
51867;DHT22;52862;52.504;13.480;2023-04-25T09:27:07;10.80;99.90
51867;DHT22;52862;52.504;13.480;2023-04-25T09:29:36;11.10;99.90
51867;DHT22;52862;52.504;13.480;2023-04-25T09:32:16;11.50;99.90
51867;DHT22;52862;52.504;13.480;2023-04-25T09:34:46;10.80;99.90
51867;DHT22;52862;52.504;13.480;2023-04-25T09:37:18;10.80;99.90
51867;DHT22;52862;52.504;13.480;2023-04-25T09:39:47;11.20;99.90
51867;DHT22;52862;52.504;13.480;2023-04-25T09:42:14;11.30;99.90
51867;DHT22;52862;52.504;13.480;2023-04-25T09:44:45;11.00;99.90
51867;DHT22;52862;52.504;13.480;2023-04-25T09:47:13;11.30;99.90
51867;DHT22;52862;52.504;13.480;2023-04-25T09:49:42;11.40;99.90
51867;DHT22;52862;52.504;13.480;2023-04-25T09:52:13;11.30;99.90
51867;DHT22;52862;52.504;13.480;2023-04-25T09:54:40;11.10;99.90
51867;DHT22;52862;52.504;13.480;2023-04-25T09:57:10;11.20;99.90
51867;DHT22;52862;52.504;13.480;2023-04-25T09:59:39;11.20;99.90
51867;DHT22;52862;52.504;13.480;2023-04-25T10:02:07;11.20;99.90
51867;DHT22;52862;52.504;13.480;2023-04-25T10:04:35;11.10;99.90
51867;DHT22;52862;52.504;13.480;2023-04-25T10:07:05;11.20;99.90
51867;DHT22;52862;52.504;13.480;2023-04-25T10:09:34;11.00;99.90
51867;DHT22;52862;52.504;13.480;2023-04-25T10:12:02;11.10;99.90
51867;DHT22;52862;52.504;13.480;2023-04-25T10:14:31;11.20;99.90
51867;DHT22;52862;52.504;13.480;2023-04-25T10:16:58;11.30;99.90
51867;DHT22;52862;52.504;13.480;2023-04-25T10:19:25;11.50;99.90
51867;DHT22;52862;52.504;13.480;2023-04-25T10:21:54;11.60;99.90
51867;DHT22;52862;52.504;13.480;2023-04-25T10:24:22;11.50;99.90
51867;DHT22;52862;52.504;13.480;2023-04-25T10:26:50;11.30;99.90
51867;DHT22;52862;52.504;13.480;2023-04-25T10:29:22;11.40;99.90
51867;DHT22;52862;52.504;13.480;2023-04-25T10:31:49;11.20;99.90
51867;DHT22;52862;52.504;13.480;2023-04-25T10:34:16;11.10;99.90
51867;DHT22;52862;52.504;13.480;2023-04-25T10:36:49;11.30;99.90
51867;DHT22;52862;52.504;13.480;2023-04-25T10:39:22;11.40;99.90
51867;DHT22;52862;52.504;13.480;2023-04-25T10:41:55;11.40;99.90
51867;DHT22;52862;52.504;13.480;2023-04-25T10:44:22;11.60;99.90
51867;DHT22;52862;52.504;13.480;2023-04-25T10:46:49;11.20;99.90
51867;DHT22;52862;52.504;13.480;2023-04-25T10:49:29;11.10;99.90
51867;DHT22;52862;52.504;13.480;2023-04-25T10:52:13;11.10;99.90
51867;DHT22;52862;52.504;13.480;2023-04-25T10:54:41;11.20;99.90
51867;DHT22;52862;52.504;13.480;2023-04-25T10:57:31;11.30;99.90
51867;DHT22;52862;52.504;13.480;2023-04-25T11:00:00;11.10;99.90
51867;DHT22;52862;52.504;13.480;2023-04-25T11:02:37;11.10;99.90
51867;DHT22;52862;52.504;13.480;2023-04-25T11:05:05;11.20;99.90
51867;DHT22;52862;52.504;13.480;2023-04-25T11:07:37;11.10;99.90
51867;DHT22;52862;52.504;13.480;2023-04-25T11:10:05;11.00;99.90
51867;DHT22;52862;52.504;13.480;2023-04-25T11:12:32;11.40;99.90
51867;DHT22;52862;52.504;13.480;2023-04-25T11:15:00;11.60;99.90
51867;DHT22;52862;52.504;13.480;2023-04-25T11:17:28;11.70;99.90
51867;DHT22;52862;52.504;13.480;2023-04-25T11:19:55;11.50;99.90
51867;DHT22;52862;52.504;13.480;2023-04-25T11:22:22;11.10;99.90
51867;DHT22;52862;52.504;13.480;2023-04-25T11:24:49;11.10;99.90
51867;DHT22;52862;52.504;13.480;2023-04-25T11:27:16;10.90;99.90
51867;DHT22;52862;52.504;13.480;2023-04-25T11:29:44;10.60;99.90
51867;DHT22;52862;52.504;13.480;2023-04-25T11:32:10;10.20;99.90
51867;DHT22;52862;52.504;13.480;2023-04-25T11:34:37;10.30;99.90
51867;DHT22;52862;52.504;13.480;2023-04-25T11:37:10;10.30;99.90
51867;DHT22;52862;52.504;13.480;2023-04-25T11:39:38;10.20;99.90
51867;DHT22;52862;52.504;13.480;2023-04-25T11:42:05;10.40;99.90
51867;DHT22;52862;52.504;13.480;2023-04-25T11:44:38;10.60;99.90
51867;DHT22;52862;52.504;13.480;2023-04-25T11:47:09;10.30;99.90
51867;DHT22;52862;52.504;13.480;2023-04-25T11:49:36;10.10;99.90
51867;DHT22;52862;52.504;13.480;2023-04-25T11:52:03;10.10;99.90
51867;DHT22;52862;52.504;13.480;2023-04-25T11:54:36;10.40;99.90
51867;DHT22;52862;52.504;13.480;2023-04-25T11:57:04;10.60;99.90
51867;DHT22;52862;52.504;13.480;2023-04-25T11:59:30;10.60;99.80
51867;DHT22;52862;52.504;13.480;2023-04-25T12:01:57;10.80;99.40
51867;DHT22;52862;52.504;13.480;2023-04-25T12:04:25;10.90;99.10
51867;DHT22;52862;52.504;13.480;2023-04-25T12:06:58;11.10;98.90
51867;DHT22;52862;52.504;13.480;2023-04-25T12:09:30;11.10;98.90
51867;DHT22;52862;52.504;13.480;2023-04-25T12:11:58;11.00;99.20
51867;DHT22;52862;52.504;13.480;2023-04-25T12:14:32;11.20;99.00
51867;DHT22;52862;52.504;13.480;2023-04-25T12:17:01;11.20;98.80
51867;DHT22;52862;52.504;13.480;2023-04-25T12:19:33;11.10;99.20
51867;DHT22;52862;52.504;13.480;2023-04-25T12:22:00;11.10;99.30
51867;DHT22;52862;52.504;13.480;2023-04-25T12:24:28;11.00;99.60
51867;DHT22;52862;52.504;13.480;2023-04-25T12:26:59;10.70;99.90
51867;DHT22;52862;52.504;13.480;2023-04-25T12:29:28;10.90;99.90
51867;DHT22;52862;52.504;13.480;2023-04-25T12:32:04;10.90;99.90
51867;DHT22;52862;52.504;13.480;2023-04-25T12:34:32;11.30;99.00
51867;DHT22;52862;52.504;13.480;2023-04-25T12:37:01;11.10;97.60
51867;DHT22;52862;52.504;13.480;2023-04-25T12:39:28;11.20;96.90
51867;DHT22;52862;52.504;13.480;2023-04-25T12:41:54;11.20;96.90
51867;DHT22;52862;52.504;13.480;2023-04-25T12:44:21;11.60;96.90
51867;DHT22;52862;52.504;13.480;2023-04-25T12:46:48;11.90;96.70
51867;DHT22;52862;52.504;13.480;2023-04-25T12:49:15;12.30;96.10
51867;DHT22;52862;52.504;13.480;2023-04-25T12:51:45;12.30;95.80
51867;DHT22;52862;52.504;13.480;2023-04-25T12:54:13;12.10;96.20
51867;DHT22;52862;52.504;13.480;2023-04-25T12:56:40;11.90;96.30
51867;DHT22;52862;52.504;13.480;2023-04-25T12:59:07;11.20;97.00
51867;DHT22;52862;52.504;13.480;2023-04-25T13:01:34;11.20;97.50
51867;DHT22;52862;52.504;13.480;2023-04-25T13:04:02;11.10;97.90
51867;DHT22;52862;52.504;13.480;2023-04-25T13:06:29;11.30;97.90
51867;DHT22;52862;52.504;13.480;2023-04-25T13:08:57;11.30;98.10
51867;DHT22;52862;52.504;13.480;2023-04-25T13:11:24;11.50;96.50
51867;DHT22;52862;52.504;13.480;2023-04-25T13:13:50;11.70;96.90
51867;DHT22;52862;52.504;13.480;2023-04-25T13:16:17;12.00;95.30
51867;DHT22;52862;52.504;13.480;2023-04-25T13:18:46;11.90;95.90
51867;DHT22;52862;52.504;13.480;2023-04-25T13:21:13;12.10;96.00
51867;DHT22;52862;52.504;13.480;2023-04-25T13:24:02;12.00;94.70
51867;DHT22;52862;52.504;13.480;2023-04-25T13:26:32;12.30;94.40
51867;DHT22;52862;52.504;13.480;2023-04-25T13:28:58;12.60;94.10
51867;DHT22;52862;52.504;13.480;2023-04-25T13:31:29;12.70;93.20
51867;DHT22;52862;52.504;13.480;2023-04-25T13:33:59;12.90;94.50
51867;DHT22;52862;52.504;13.480;2023-04-25T13:36:25;12.70;93.80
51867;DHT22;52862;52.504;13.480;2023-04-25T13:38:53;12.30;94.70
51867;DHT22;52862;52.504;13.480;2023-04-25T13:41:21;11.70;96.10
51867;DHT22;52862;52.504;13.480;2023-04-25T13:43:47;11.60;96.30
51867;DHT22;52862;52.504;13.480;2023-04-25T13:46:15;11.70;96.60
51867;DHT22;52862;52.504;13.480;2023-04-25T13:49:01;11.60;97.00
51867;DHT22;52862;52.504;13.480;2023-04-25T13:51:38;11.50;97.00
51867;DHT22;52862;52.504;13.480;2023-04-25T13:54:05;11.60;97.30
51867;DHT22;52862;52.504;13.480;2023-04-25T13:56:32;11.10;97.90
51867;DHT22;52862;52.504;13.480;2023-04-25T13:58:59;11.40;97.80
51867;DHT22;52862;52.504;13.480;2023-04-25T14:01:25;11.50;97.80
51867;DHT22;52862;52.504;13.480;2023-04-25T14:03:52;11.90;97.30
51867;DHT22;52862;52.504;13.480;2023-04-25T14:06:19;12.20;97.10
51867;DHT22;52862;52.504;13.480;2023-04-25T14:08:49;12.40;96.80
51867;DHT22;52862;52.504;13.480;2023-04-25T14:11:15;11.60;97.70
51867;DHT22;52862;52.504;13.480;2023-04-25T14:13:44;11.40;97.80
51867;DHT22;52862;52.504;13.480;2023-04-25T14:16:11;11.30;98.50
51867;DHT22;52862;52.504;13.480;2023-04-25T14:18:37;10.90;98.80
51867;DHT22;52862;52.504;13.480;2023-04-25T14:21:04;11.00;98.80
51867;DHT22;52862;52.504;13.480;2023-04-25T14:23:31;11.00;99.10
51867;DHT22;52862;52.504;13.480;2023-04-25T14:25:57;10.90;98.60
51867;DHT22;52862;52.504;13.480;2023-04-25T14:28:24;10.70;98.50
51867;DHT22;52862;52.504;13.480;2023-04-25T14:30:51;10.80;98.50
51867;DHT22;52862;52.504;13.480;2023-04-25T14:33:18;10.70;98.80
51867;DHT22;52862;52.504;13.480;2023-04-25T14:35:54;10.70;98.60
51867;DHT22;52862;52.504;13.480;2023-04-25T14:38:20;10.60;98.50
51867;DHT22;52862;52.504;13.480;2023-04-25T14:40:49;10.60;98.80
51867;DHT22;52862;52.504;13.480;2023-04-25T14:43:16;10.60;98.70
51867;DHT22;52862;52.504;13.480;2023-04-25T14:45:42;10.90;98.60
51867;DHT22;52862;52.504;13.480;2023-04-25T14:48:09;11.40;98.40
51867;DHT22;52862;52.504;13.480;2023-04-25T14:50:36;11.80;97.20
51867;DHT22;52862;52.504;13.480;2023-04-25T14:53:03;12.90;95.80
51867;DHT22;52862;52.504;13.480;2023-04-25T14:55:30;13.70;95.20
51867;DHT22;52862;52.504;13.480;2023-04-25T14:57:57;13.30;95.40
51867;DHT22;52862;52.504;13.480;2023-04-25T15:00:27;12.20;97.00
51867;DHT22;52862;52.504;13.480;2023-04-25T15:02:53;11.40;98.10
51867;DHT22;52862;52.504;13.480;2023-04-25T15:05:21;11.00;99.50
51867;DHT22;52862;52.504;13.480;2023-04-25T15:07:48;10.70;99.90
51867;DHT22;52862;52.504;13.480;2023-04-25T15:10:16;10.50;99.90
51867;DHT22;52862;52.504;13.480;2023-04-25T15:12:43;11.30;99.90
51867;DHT22;52862;52.504;13.480;2023-04-25T15:15:13;10.20;99.90
51867;DHT22;52862;52.504;13.480;2023-04-25T15:17:51;10.20;99.90
51867;DHT22;52862;52.504;13.480;2023-04-25T15:20:18;10.20;99.90
51867;DHT22;52862;52.504;13.480;2023-04-25T15:22:45;10.30;99.90
51867;DHT22;52862;52.504;13.480;2023-04-25T15:25:12;10.20;99.90
51867;DHT22;52862;52.504;13.480;2023-04-25T15:27:39;10.40;99.90
51867;DHT22;52862;52.504;13.480;2023-04-25T15:30:10;10.40;99.90